sensor_id;sensor_type;location;lat;lon;timestamp;P1;durP1;ratioP1;P2;durP2;ratioP2
12412;SDS011;13877;18.896;-99.222;2023-05-10T00:00:54;38.00;;;19.63;;
12412;SDS011;13877;18.896;-99.222;2023-05-10T00:03:21;39.17;;;17.83;;
12412;SDS011;13877;18.896;-99.222;2023-05-10T00:05:48;48.13;;;17.58;;
12412;SDS011;13877;18.896;-99.222;2023-05-10T00:08:15;32.67;;;15.60;;
12412;SDS011;13877;18.896;-99.222;2023-05-10T00:10:42;38.55;;;16.00;;
12412;SDS011;13877;18.896;-99.222;2023-05-10T00:13:12;33.03;;;16.08;;
12412;SDS011;13877;18.896;-99.222;2023-05-10T00:15:39;37.05;;;18.13;;
12412;SDS011;13877;18.896;-99.222;2023-05-10T00:18:06;36.47;;;18.25;;
12412;SDS011;13877;18.896;-99.222;2023-05-10T00:20:33;43.42;;;19.55;;
12412;SDS011;13877;18.896;-99.222;2023-05-10T00:23:00;51.33;;;21.55;;
12412;SDS011;13877;18.896;-99.222;2023-05-10T00:25:27;59.88;;;22.55;;
12412;SDS011;13877;18.896;-99.222;2023-05-10T00:27:54;48.10;;;21.60;;
12412;SDS011;13877;18.896;-99.222;2023-05-10T00:30:23;60.33;;;23.00;;
12412;SDS011;13877;18.896;-99.222;2023-05-10T00:32:50;46.00;;;22.45;;
12412;SDS011;13877;18.896;-99.222;2023-05-10T00:35:17;45.15;;;22.42;;
12412;SDS011;13877;18.896;-99.222;2023-05-10T00:37:44;45.30;;;22.30;;
12412;SDS011;13877;18.896;-99.222;2023-05-10T00:40:11;48.25;;;25.65;;
12412;SDS011;13877;18.896;-99.222;2023-05-10T00:42:40;52.97;;;24.55;;
12412;SDS011;13877;18.896;-99.222;2023-05-10T00:45:07;55.97;;;22.08;;
12412;SDS011;13877;18.896;-99.222;2023-05-10T00:47:34;38.08;;;21.40;;
12412;SDS011;13877;18.896;-99.222;2023-05-10T00:50:02;36.80;;;20.08;;
12412;SDS011;13877;18.896;-99.222;2023-05-10T00:52:30;47.90;;;21.38;;
12412;SDS011;13877;18.896;-99.222;2023-05-10T00:54:58;51.35;;;22.02;;
12412;SDS011;13877;18.896;-99.222;2023-05-10T00:57:26;49.83;;;22.10;;
12412;SDS011;13877;18.896;-99.222;2023-05-10T00:59:53;40.10;;;21.20;;
12412;SDS011;13877;18.896;-99.222;2023-05-10T01:02:20;44.42;;;20.33;;
12412;SDS011;13877;18.896;-99.222;2023-05-10T01:04:47;36.10;;;19.40;;
12412;SDS011;13877;18.896;-99.222;2023-05-10T01:07:15;40.10;;;20.60;;
12412;SDS011;13877;18.896;-99.222;2023-05-10T01:09:42;39.50;;;19.35;;
12412;SDS011;13877;18.896;-99.222;2023-05-10T01:12:10;44.70;;;18.60;;
12412;SDS011;13877;18.896;-99.222;2023-05-10T01:14:37;36.28;;;17.83;;
12412;SDS011;13877;18.896;-99.222;2023-05-10T01:17:05;32.17;;;16.75;;
12412;SDS011;13877;18.896;-99.222;2023-05-10T01:19:35;28.08;;;15.60;;
12412;SDS011;13877;18.896;-99.222;2023-05-10T01:30:33;28.95;;;14.30;;
12412;SDS011;13877;18.896;-99.222;2023-05-10T01:39:11;28.10;;;14.68;;
12412;SDS011;13877;18.896;-99.222;2023-05-10T01:41:52;23.40;;;14.35;;
12412;SDS011;13877;18.896;-99.222;2023-05-10T01:47:41;26.02;;;14.80;;
12412;SDS011;13877;18.896;-99.222;2023-05-10T01:50:18;31.90;;;15.02;;
12412;SDS011;13877;18.896;-99.222;2023-05-10T01:52:51;30.77;;;14.95;;
12412;SDS011;13877;18.896;-99.222;2023-05-10T01:55:21;28.37;;;15.20;;
12412;SDS011;13877;18.896;-99.222;2023-05-10T01:57:52;38.42;;;15.10;;
12412;SDS011;13877;18.896;-99.222;2023-05-10T02:00:27;28.52;;;15.70;;
12412;SDS011;13877;18.896;-99.222;2023-05-10T02:02:55;33.67;;;15.73;;
12412;SDS011;13877;18.896;-99.222;2023-05-10T02:05:23;26.05;;;14.90;;
12412;SDS011;13877;18.896;-99.222;2023-05-10T02:07:53;28.63;;;14.93;;
12412;SDS011;13877;18.896;-99.222;2023-05-10T02:10:21;29.17;;;14.95;;
12412;SDS011;13877;18.896;-99.222;2023-05-10T02:12:48;34.25;;;15.13;;
12412;SDS011;13877;18.896;-99.222;2023-05-10T02:15:20;41.83;;;20.40;;
12412;SDS011;13877;18.896;-99.222;2023-05-10T02:17:49;45.38;;;19.08;;
12412;SDS011;13877;18.896;-99.222;2023-05-10T02:20:16;37.30;;;18.05;;
12412;SDS011;13877;18.896;-99.222;2023-05-10T02:22:45;34.85;;;17.80;;
12412;SDS011;13877;18.896;-99.222;2023-05-10T02:25:15;31.15;;;17.75;;
12412;SDS011;13877;18.896;-99.222;2023-05-10T02:27:43;38.35;;;17.20;;
12412;SDS011;13877;18.896;-99.222;2023-05-10T02:30:12;35.17;;;17.38;;
12412;SDS011;13877;18.896;-99.222;2023-05-10T02:32:39;32.78;;;17.02;;
12412;SDS011;13877;18.896;-99.222;2023-05-10T02:35:08;30.67;;;15.68;;
12412;SDS011;13877;18.896;-99.222;2023-05-10T02:37:38;30.67;;;15.47;;
12412;SDS011;13877;18.896;-99.222;2023-05-10T02:40:05;32.78;;;14.85;;
12412;SDS011;13877;18.896;-99.222;2023-05-10T02:42:35;29.40;;;15.50;;
12412;SDS011;13877;18.896;-99.222;2023-05-10T02:45:05;25.50;;;15.48;;
12412;SDS011;13877;18.896;-99.222;2023-05-10T02:47:52;26.10;;;13.57;;
12412;SDS011;13877;18.896;-99.222;2023-05-10T02:50:20;23.02;;;14.25;;
12412;SDS011;13877;18.896;-99.222;2023-05-10T02:52:51;30.02;;;13.75;;
12412;SDS011;13877;18.896;-99.222;2023-05-10T02:55:31;21.50;;;13.20;;
12412;SDS011;13877;18.896;-99.222;2023-05-10T02:58:02;24.85;;;13.63;;
12412;SDS011;13877;18.896;-99.222;2023-05-10T03:00:29;27.02;;;14.18;;
12412;SDS011;13877;18.896;-99.222;2023-05-10T03:03:16;27.98;;;14.20;;
12412;SDS011;13877;18.896;-99.222;2023-05-10T03:06:04;28.15;;;13.98;;
12412;SDS011;13877;18.896;-99.222;2023-05-10T03:08:51;31.45;;;14.15;;
12412;SDS011;13877;18.896;-99.222;2023-05-10T03:14:34;21.48;;;13.10;;
12412;SDS011;13877;18.896;-99.222;2023-05-10T03:19:53;23.70;;;12.65;;
12412;SDS011;13877;18.896;-99.222;2023-05-10T03:22:26;30.23;;;12.48;;
12412;SDS011;13877;18.896;-99.222;2023-05-10T03:25:00;24.48;;;12.57;;
12412;SDS011;13877;18.896;-99.222;2023-05-10T03:27:33;20.73;;;11.95;;
12412;SDS011;13877;18.896;-99.222;2023-05-10T03:30:02;20.70;;;12.45;;
12412;SDS011;13877;18.896;-99.222;2023-05-10T03:32:32;25.42;;;14.00;;
12412;SDS011;13877;18.896;-99.222;2023-05-10T03:35:01;26.35;;;13.07;;
12412;SDS011;13877;18.896;-99.222;2023-05-10T03:37:32;23.25;;;14.60;;
12412;SDS011;13877;18.896;-99.222;2023-05-10T03:39:59;22.45;;;14.25;;
12412;SDS011;13877;18.896;-99.222;2023-05-10T03:42:29;21.80;;;14.60;;
12412;SDS011;13877;18.896;-99.222;2023-05-10T03:44:56;26.35;;;15.40;;
12412;SDS011;13877;18.896;-99.222;2023-05-10T03:47:23;28.80;;;15.80;;
12412;SDS011;13877;18.896;-99.222;2023-05-10T03:49:51;29.02;;;17.55;;
12412;SDS011;13877;18.896;-99.222;2023-05-10T03:52:18;31.00;;;17.05;;
12412;SDS011;13877;18.896;-99.222;2023-05-10T03:54:44;31.85;;;17.25;;
12412;SDS011;13877;18.896;-99.222;2023-05-10T03:57:11;27.20;;;16.73;;
12412;SDS011;13877;18.896;-99.222;2023-05-10T03:59:38;35.72;;;17.30;;
12412;SDS011;13877;18.896;-99.222;2023-05-10T04:02:05;35.05;;;16.55;;
12412;SDS011;13877;18.896;-99.222;2023-05-10T04:04:32;39.13;;;17.50;;
12412;SDS011;13877;18.896;-99.222;2023-05-10T04:06:59;30.65;;;17.23;;
12412;SDS011;13877;18.896;-99.222;2023-05-10T04:09:26;39.33;;;18.83;;
12412;SDS011;13877;18.896;-99.222;2023-05-10T04:11:53;33.33;;;18.50;;
12412;SDS011;13877;18.896;-99.222;2023-05-10T04:14:20;31.02;;;17.50;;
12412;SDS011;13877;18.896;-99.222;2023-05-10T04:16:47;31.45;;;17.63;;
12412;SDS011;13877;18.896;-99.222;2023-05-10T04:19:13;36.00;;;18.00;;
12412;SDS011;13877;18.896;-99.222;2023-05-10T04:21:40;36.30;;;17.83;;
12412;SDS011;13877;18.896;-99.222;2023-05-10T04:24:07;35.33;;;17.73;;
12412;SDS011;13877;18.896;-99.222;2023-05-10T04:26:34;27.52;;;17.73;;
12412;SDS011;13877;18.896;-99.222;2023-05-10T04:29:01;33.03;;;18.50;;
12412;SDS011;13877;18.896;-99.222;2023-05-10T04:31:29;34.58;;;18.27;;
12412;SDS011;13877;18.896;-99.222;2023-05-10T04:33:56;35.60;;;19.08;;
12412;SDS011;13877;18.896;-99.222;2023-05-10T04:36:22;37.80;;;19.20;;
12412;SDS011;13877;18.896;-99.222;2023-05-10T04:38:49;32.08;;;17.23;;
12412;SDS011;13877;18.896;-99.222;2023-05-10T04:41:16;34.10;;;17.77;;
12412;SDS011;13877;18.896;-99.222;2023-05-10T04:43:43;43.03;;;17.10;;
12412;SDS011;13877;18.896;-99.222;2023-05-10T04:46:10;39.47;;;19.38;;
12412;SDS011;13877;18.896;-99.222;2023-05-10T04:48:36;32.53;;;17.17;;
12412;SDS011;13877;18.896;-99.222;2023-05-10T04:51:03;40.20;;;19.08;;
12412;SDS011;13877;18.896;-99.222;2023-05-10T04:53:32;40.17;;;19.13;;
12412;SDS011;13877;18.896;-99.222;2023-05-10T04:55:59;34.67;;;18.98;;
12412;SDS011;13877;18.896;-99.222;2023-05-10T04:58:26;33.63;;;18.90;;
12412;SDS011;13877;18.896;-99.222;2023-05-10T05:00:53;42.80;;;19.33;;
12412;SDS011;13877;18.896;-99.222;2023-05-10T05:03:19;42.65;;;19.70;;
12412;SDS011;13877;18.896;-99.222;2023-05-10T05:05:48;38.97;;;19.00;;
12412;SDS011;13877;18.896;-99.222;2023-05-10T05:08:14;33.85;;;19.02;;
12412;SDS011;13877;18.896;-99.222;2023-05-10T05:10:41;36.10;;;18.90;;
12412;SDS011;13877;18.896;-99.222;2023-05-10T05:13:08;35.70;;;19.58;;
12412;SDS011;13877;18.896;-99.222;2023-05-10T05:15:35;34.17;;;19.83;;
12412;SDS011;13877;18.896;-99.222;2023-05-10T05:18:02;31.88;;;18.55;;
12412;SDS011;13877;18.896;-99.222;2023-05-10T05:20:31;36.67;;;18.75;;
12412;SDS011;13877;18.896;-99.222;2023-05-10T05:23:00;37.97;;;18.92;;
12412;SDS011;13877;18.896;-99.222;2023-05-10T05:25:27;38.80;;;18.38;;
12412;SDS011;13877;18.896;-99.222;2023-05-10T05:27:54;38.63;;;18.35;;
12412;SDS011;13877;18.896;-99.222;2023-05-10T05:30:21;37.08;;;17.38;;
12412;SDS011;13877;18.896;-99.222;2023-05-10T05:32:48;41.40;;;19.23;;
12412;SDS011;13877;18.896;-99.222;2023-05-10T05:35:15;29.38;;;17.85;;
12412;SDS011;13877;18.896;-99.222;2023-05-10T05:37:42;33.83;;;17.95;;
12412;SDS011;13877;18.896;-99.222;2023-05-10T05:40:11;34.63;;;17.92;;
12412;SDS011;13877;18.896;-99.222;2023-05-10T05:42:39;34.08;;;18.48;;
12412;SDS011;13877;18.896;-99.222;2023-05-10T05:45:07;35.08;;;17.65;;
12412;SDS011;13877;18.896;-99.222;2023-05-10T05:47:34;38.38;;;18.52;;
12412;SDS011;13877;18.896;-99.222;2023-05-10T05:50:01;39.80;;;18.98;;
12412;SDS011;13877;18.896;-99.222;2023-05-10T05:52:28;35.45;;;18.58;;
12412;SDS011;13877;18.896;-99.222;2023-05-10T05:54:55;46.25;;;20.40;;
12412;SDS011;13877;18.896;-99.222;2023-05-10T05:57:22;38.55;;;19.02;;
12412;SDS011;13877;18.896;-99.222;2023-05-10T05:59:49;42.53;;;19.60;;
12412;SDS011;13877;18.896;-99.222;2023-05-10T06:02:16;36.65;;;18.15;;
12412;SDS011;13877;18.896;-99.222;2023-05-10T06:04:43;47.33;;;20.40;;
12412;SDS011;13877;18.896;-99.222;2023-05-10T06:07:10;35.15;;;18.05;;
12412;SDS011;13877;18.896;-99.222;2023-05-10T06:09:37;43.38;;;18.50;;
12412;SDS011;13877;18.896;-99.222;2023-05-10T06:12:04;39.60;;;18.88;;
12412;SDS011;13877;18.896;-99.222;2023-05-10T06:14:30;38.65;;;18.85;;
12412;SDS011;13877;18.896;-99.222;2023-05-10T06:16:57;41.22;;;18.98;;
12412;SDS011;13877;18.896;-99.222;2023-05-10T06:19:25;34.72;;;18.88;;
12412;SDS011;13877;18.896;-99.222;2023-05-10T06:21:52;33.00;;;18.73;;
12412;SDS011;13877;18.896;-99.222;2023-05-10T06:24:19;35.47;;;18.42;;
12412;SDS011;13877;18.896;-99.222;2023-05-10T06:26:47;39.50;;;19.45;;
12412;SDS011;13877;18.896;-99.222;2023-05-10T06:29:15;34.90;;;17.77;;
12412;SDS011;13877;18.896;-99.222;2023-05-10T06:31:42;39.75;;;18.85;;
12412;SDS011;13877;18.896;-99.222;2023-05-10T06:34:09;37.42;;;19.00;;
12412;SDS011;13877;18.896;-99.222;2023-05-10T06:36:37;39.65;;;17.75;;
12412;SDS011;13877;18.896;-99.222;2023-05-10T06:39:04;43.20;;;17.80;;
12412;SDS011;13877;18.896;-99.222;2023-05-10T06:41:31;35.05;;;17.45;;
12412;SDS011;13877;18.896;-99.222;2023-05-10T06:43:58;33.05;;;18.33;;
12412;SDS011;13877;18.896;-99.222;2023-05-10T06:46:25;34.83;;;18.45;;
12412;SDS011;13877;18.896;-99.222;2023-05-10T06:48:51;33.40;;;17.35;;
12412;SDS011;13877;18.896;-99.222;2023-05-10T06:51:18;34.40;;;16.65;;
12412;SDS011;13877;18.896;-99.222;2023-05-10T06:53:46;34.42;;;16.70;;
12412;SDS011;13877;18.896;-99.222;2023-05-10T06:56:13;33.78;;;16.05;;
12412;SDS011;13877;18.896;-99.222;2023-05-10T06:58:40;27.35;;;15.77;;
12412;SDS011;13877;18.896;-99.222;2023-05-10T07:01:07;27.90;;;15.00;;
12412;SDS011;13877;18.896;-99.222;2023-05-10T07:03:34;27.23;;;14.82;;
12412;SDS011;13877;18.896;-99.222;2023-05-10T07:06:01;23.95;;;14.10;;
12412;SDS011;13877;18.896;-99.222;2023-05-10T07:08:32;30.67;;;15.80;;
12412;SDS011;13877;18.896;-99.222;2023-05-10T07:11:00;25.77;;;14.30;;
12412;SDS011;13877;18.896;-99.222;2023-05-10T07:13:33;23.85;;;13.50;;
12412;SDS011;13877;18.896;-99.222;2023-05-10T07:16:01;31.08;;;13.82;;
12412;SDS011;13877;18.896;-99.222;2023-05-10T07:18:28;25.08;;;13.30;;
12412;SDS011;13877;18.896;-99.222;2023-05-10T07:20:56;26.70;;;13.02;;
12412;SDS011;13877;18.896;-99.222;2023-05-10T07:23:23;25.45;;;14.18;;
12412;SDS011;13877;18.896;-99.222;2023-05-10T07:25:51;30.67;;;13.80;;
12412;SDS011;13877;18.896;-99.222;2023-05-10T07:28:18;23.90;;;13.00;;
12412;SDS011;13877;18.896;-99.222;2023-05-10T07:30:45;20.83;;;13.38;;
12412;SDS011;13877;18.896;-99.222;2023-05-10T07:33:13;24.95;;;14.15;;
12412;SDS011;13877;18.896;-99.222;2023-05-10T07:35:41;28.50;;;13.73;;
12412;SDS011;13877;18.896;-99.222;2023-05-10T07:38:09;25.42;;;14.00;;
12412;SDS011;13877;18.896;-99.222;2023-05-10T07:40:36;29.23;;;14.70;;
12412;SDS011;13877;18.896;-99.222;2023-05-10T07:43:04;27.67;;;14.35;;
12412;SDS011;13877;18.896;-99.222;2023-05-10T07:45:31;34.05;;;16.05;;
12412;SDS011;13877;18.896;-99.222;2023-05-10T07:47:59;35.70;;;16.40;;
12412;SDS011;13877;18.896;-99.222;2023-05-10T07:50:25;35.08;;;17.67;;
12412;SDS011;13877;18.896;-99.222;2023-05-10T07:52:52;30.65;;;16.13;;
12412;SDS011;13877;18.896;-99.222;2023-05-10T07:55:19;34.95;;;16.88;;
12412;SDS011;13877;18.896;-99.222;2023-05-10T07:57:47;27.58;;;14.65;;
12412;SDS011;13877;18.896;-99.222;2023-05-10T08:00:16;27.20;;;14.60;;
12412;SDS011;13877;18.896;-99.222;2023-05-10T08:02:44;27.38;;;13.75;;
12412;SDS011;13877;18.896;-99.222;2023-05-10T08:05:11;24.42;;;14.10;;
12412;SDS011;13877;18.896;-99.222;2023-05-10T08:07:39;26.95;;;12.10;;
12412;SDS011;13877;18.896;-99.222;2023-05-10T08:10:06;24.17;;;12.65;;
12412;SDS011;13877;18.896;-99.222;2023-05-10T08:12:37;19.67;;;12.13;;
12412;SDS011;13877;18.896;-99.222;2023-05-10T08:15:04;23.85;;;13.23;;
12412;SDS011;13877;18.896;-99.222;2023-05-10T08:17:32;23.33;;;13.32;;
12412;SDS011;13877;18.896;-99.222;2023-05-10T08:19:59;24.83;;;14.07;;
12412;SDS011;13877;18.896;-99.222;2023-05-10T08:22:26;27.23;;;14.02;;
12412;SDS011;13877;18.896;-99.222;2023-05-10T08:24:52;26.35;;;14.13;;
12412;SDS011;13877;18.896;-99.222;2023-05-10T08:27:20;25.83;;;13.65;;
12412;SDS011;13877;18.896;-99.222;2023-05-10T08:29:47;29.88;;;14.27;;
12412;SDS011;13877;18.896;-99.222;2023-05-10T08:32:14;27.38;;;14.43;;
12412;SDS011;13877;18.896;-99.222;2023-05-10T08:34:41;28.67;;;15.15;;
12412;SDS011;13877;18.896;-99.222;2023-05-10T08:37:08;20.70;;;13.82;;
12412;SDS011;13877;18.896;-99.222;2023-05-10T08:39:36;22.85;;;13.63;;
12412;SDS011;13877;18.896;-99.222;2023-05-10T08:42:04;26.92;;;14.10;;
12412;SDS011;13877;18.896;-99.222;2023-05-10T08:44:32;36.65;;;14.82;;
12412;SDS011;13877;18.896;-99.222;2023-05-10T08:47:05;35.47;;;15.80;;
12412;SDS011;13877;18.896;-99.222;2023-05-10T08:49:33;36.00;;;15.57;;
12412;SDS011;13877;18.896;-99.222;2023-05-10T08:52:02;27.70;;;14.15;;
12412;SDS011;13877;18.896;-99.222;2023-05-10T08:54:31;25.45;;;14.38;;
12412;SDS011;13877;18.896;-99.222;2023-05-10T08:56:59;22.77;;;13.93;;
12412;SDS011;13877;18.896;-99.222;2023-05-10T08:59:26;31.27;;;14.23;;
12412;SDS011;13877;18.896;-99.222;2023-05-10T09:01:55;30.55;;;14.27;;
12412;SDS011;13877;18.896;-99.222;2023-05-10T09:04:25;26.00;;;14.90;;
12412;SDS011;13877;18.896;-99.222;2023-05-10T09:06:52;28.15;;;14.63;;
12412;SDS011;13877;18.896;-99.222;2023-05-10T09:09:20;33.63;;;14.55;;
12412;SDS011;13877;18.896;-99.222;2023-05-10T09:11:47;24.88;;;14.13;;
12412;SDS011;13877;18.896;-99.222;2023-05-10T09:14:15;26.65;;;13.75;;
12412;SDS011;13877;18.896;-99.222;2023-05-10T09:16:42;26.40;;;13.57;;
12412;SDS011;13877;18.896;-99.222;2023-05-10T09:19:10;27.02;;;13.30;;
12412;SDS011;13877;18.896;-99.222;2023-05-10T09:21:37;32.00;;;14.55;;
12412;SDS011;13877;18.896;-99.222;2023-05-10T09:24:04;35.95;;;16.40;;
12412;SDS011;13877;18.896;-99.222;2023-05-10T09:26:32;33.45;;;15.63;;
12412;SDS011;13877;18.896;-99.222;2023-05-10T09:29:01;28.77;;;16.27;;
12412;SDS011;13877;18.896;-99.222;2023-05-10T09:34:29;28.30;;;15.65;;
12412;SDS011;13877;18.896;-99.222;2023-05-10T09:36:59;28.17;;;16.08;;
12412;SDS011;13877;18.896;-99.222;2023-05-10T09:39:33;30.13;;;15.35;;
12412;SDS011;13877;18.896;-99.222;2023-05-10T09:42:05;28.40;;;15.57;;
12412;SDS011;13877;18.896;-99.222;2023-05-10T09:44:33;35.15;;;16.80;;
12412;SDS011;13877;18.896;-99.222;2023-05-10T09:47:00;32.35;;;15.68;;
12412;SDS011;13877;18.896;-99.222;2023-05-10T09:49:28;27.83;;;15.65;;
12412;SDS011;13877;18.896;-99.222;2023-05-10T09:52:02;39.40;;;15.80;;
12412;SDS011;13877;18.896;-99.222;2023-05-10T09:54:30;32.45;;;16.13;;
12412;SDS011;13877;18.896;-99.222;2023-05-10T09:56:57;30.95;;;16.08;;
12412;SDS011;13877;18.896;-99.222;2023-05-10T09:59:25;28.85;;;15.80;;
12412;SDS011;13877;18.896;-99.222;2023-05-10T10:01:55;31.70;;;15.98;;
12412;SDS011;13877;18.896;-99.222;2023-05-10T10:04:23;35.00;;;16.40;;
12412;SDS011;13877;18.896;-99.222;2023-05-10T10:07:03;27.08;;;14.95;;
12412;SDS011;13877;18.896;-99.222;2023-05-10T10:09:32;26.58;;;15.68;;
12412;SDS011;13877;18.896;-99.222;2023-05-10T10:12:00;30.42;;;16.08;;
12412;SDS011;13877;18.896;-99.222;2023-05-10T10:14:28;33.05;;;15.63;;
12412;SDS011;13877;18.896;-99.222;2023-05-10T10:16:55;32.30;;;16.17;;
12412;SDS011;13877;18.896;-99.222;2023-05-10T10:19:22;24.60;;;14.65;;
12412;SDS011;13877;18.896;-99.222;2023-05-10T10:21:49;27.85;;;16.23;;
12412;SDS011;13877;18.896;-99.222;2023-05-10T10:24:17;27.33;;;16.45;;
12412;SDS011;13877;18.896;-99.222;2023-05-10T10:26:43;34.58;;;15.05;;
12412;SDS011;13877;18.896;-99.222;2023-05-10T10:35:08;26.58;;;15.23;;
12412;SDS011;13877;18.896;-99.222;2023-05-10T10:37:45;25.25;;;15.65;;
12412;SDS011;13877;18.896;-99.222;2023-05-10T10:42:57;27.65;;;15.10;;
12412;SDS011;13877;18.896;-99.222;2023-05-10T10:45:47;27.25;;;14.65;;
12412;SDS011;13877;18.896;-99.222;2023-05-10T10:48:33;22.17;;;13.82;;
12412;SDS011;13877;18.896;-99.222;2023-05-10T10:51:00;30.83;;;14.38;;
12412;SDS011;13877;18.896;-99.222;2023-05-10T10:53:27;22.67;;;13.80;;
12412;SDS011;13877;18.896;-99.222;2023-05-10T10:56:07;23.08;;;13.60;;
12412;SDS011;13877;18.896;-99.222;2023-05-10T10:58:39;21.58;;;13.50;;
12412;SDS011;13877;18.896;-99.222;2023-05-10T11:03:38;28.90;;;14.10;;
12412;SDS011;13877;18.896;-99.222;2023-05-10T11:06:05;23.77;;;13.52;;
12412;SDS011;13877;18.896;-99.222;2023-05-10T11:08:35;26.83;;;14.68;;
12412;SDS011;13877;18.896;-99.222;2023-05-10T11:11:09;24.67;;;13.85;;
12412;SDS011;13877;18.896;-99.222;2023-05-10T11:13:44;25.43;;;13.80;;
12412;SDS011;13877;18.896;-99.222;2023-05-10T11:16:14;26.17;;;13.38;;
12412;SDS011;13877;18.896;-99.222;2023-05-10T11:19:07;22.00;;;13.77;;
12412;SDS011;13877;18.896;-99.222;2023-05-10T11:24:15;22.25;;;13.85;;
12412;SDS011;13877;18.896;-99.222;2023-05-10T11:26:46;29.42;;;14.50;;
12412;SDS011;13877;18.896;-99.222;2023-05-10T11:29:17;28.73;;;13.70;;
12412;SDS011;13877;18.896;-99.222;2023-05-10T11:31:44;24.45;;;14.02;;
12412;SDS011;13877;18.896;-99.222;2023-05-10T11:34:23;24.38;;;13.73;;
12412;SDS011;13877;18.896;-99.222;2023-05-10T11:36:59;31.63;;;14.40;;
12412;SDS011;13877;18.896;-99.222;2023-05-10T11:39:27;25.98;;;14.00;;
12412;SDS011;13877;18.896;-99.222;2023-05-10T11:41:55;29.17;;;13.25;;
12412;SDS011;13877;18.896;-99.222;2023-05-10T11:44:22;25.15;;;14.18;;
12412;SDS011;13877;18.896;-99.222;2023-05-10T11:46:57;28.45;;;13.85;;
12412;SDS011;13877;18.896;-99.222;2023-05-10T11:49:27;24.75;;;13.43;;
12412;SDS011;13877;18.896;-99.222;2023-05-10T11:52:04;24.25;;;13.38;;
12412;SDS011;13877;18.896;-99.222;2023-05-10T11:54:32;22.83;;;13.23;;
12412;SDS011;13877;18.896;-99.222;2023-05-10T11:57:00;28.80;;;14.13;;
12412;SDS011;13877;18.896;-99.222;2023-05-10T11:59:27;24.98;;;13.20;;
12412;SDS011;13877;18.896;-99.222;2023-05-10T12:01:54;24.25;;;14.15;;
12412;SDS011;13877;18.896;-99.222;2023-05-10T12:04:21;25.40;;;12.73;;
12412;SDS011;13877;18.896;-99.222;2023-05-10T12:06:48;28.58;;;13.98;;
12412;SDS011;13877;18.896;-99.222;2023-05-10T12:09:15;23.98;;;13.13;;
12412;SDS011;13877;18.896;-99.222;2023-05-10T12:11:42;22.67;;;12.75;;
12412;SDS011;13877;18.896;-99.222;2023-05-10T12:14:09;30.42;;;13.65;;
12412;SDS011;13877;18.896;-99.222;2023-05-10T12:16:36;27.23;;;13.10;;
12412;SDS011;13877;18.896;-99.222;2023-05-10T12:19:03;27.40;;;13.88;;
12412;SDS011;13877;18.896;-99.222;2023-05-10T12:21:30;28.75;;;13.30;;
12412;SDS011;13877;18.896;-99.222;2023-05-10T12:24:03;21.67;;;12.95;;
12412;SDS011;13877;18.896;-99.222;2023-05-10T12:26:31;30.67;;;13.32;;
12412;SDS011;13877;18.896;-99.222;2023-05-10T12:34:33;25.92;;;13.30;;
12412;SDS011;13877;18.896;-99.222;2023-05-10T12:37:02;37.70;;;12.88;;
12412;SDS011;13877;18.896;-99.222;2023-05-10T12:39:43;29.58;;;13.30;;
12412;SDS011;13877;18.896;-99.222;2023-05-10T12:42:11;30.08;;;13.52;;
12412;SDS011;13877;18.896;-99.222;2023-05-10T12:44:38;25.20;;;12.65;;
12412;SDS011;13877;18.896;-99.222;2023-05-10T12:47:05;24.80;;;13.65;;
12412;SDS011;13877;18.896;-99.222;2023-05-10T12:49:32;26.98;;;13.27;;
12412;SDS011;13877;18.896;-99.222;2023-05-10T12:51:59;26.65;;;14.02;;
12412;SDS011;13877;18.896;-99.222;2023-05-10T12:54:26;22.65;;;13.07;;
12412;SDS011;13877;18.896;-99.222;2023-05-10T12:56:53;27.20;;;13.35;;
12412;SDS011;13877;18.896;-99.222;2023-05-10T12:59:20;32.28;;;13.98;;
12412;SDS011;13877;18.896;-99.222;2023-05-10T13:01:48;28.48;;;13.48;;
12412;SDS011;13877;18.896;-99.222;2023-05-10T13:04:15;23.85;;;13.77;;
12412;SDS011;13877;18.896;-99.222;2023-05-10T13:06:42;20.77;;;12.90;;
12412;SDS011;13877;18.896;-99.222;2023-05-10T13:09:09;33.22;;;13.82;;
12412;SDS011;13877;18.896;-99.222;2023-05-10T13:11:36;26.60;;;14.27;;
12412;SDS011;13877;18.896;-99.222;2023-05-10T13:14:03;23.10;;;12.93;;
12412;SDS011;13877;18.896;-99.222;2023-05-10T13:16:30;28.98;;;13.82;;
12412;SDS011;13877;18.896;-99.222;2023-05-10T13:18:57;34.65;;;13.43;;
12412;SDS011;13877;18.896;-99.222;2023-05-10T13:21:24;30.40;;;14.50;;
12412;SDS011;13877;18.896;-99.222;2023-05-10T13:23:51;37.85;;;14.55;;
12412;SDS011;13877;18.896;-99.222;2023-05-10T13:26:19;22.60;;;13.88;;
12412;SDS011;13877;18.896;-99.222;2023-05-10T13:28:45;26.10;;;15.18;;
12412;SDS011;13877;18.896;-99.222;2023-05-10T13:31:12;30.50;;;15.80;;
12412;SDS011;13877;18.896;-99.222;2023-05-10T13:33:39;35.30;;;17.95;;
12412;SDS011;13877;18.896;-99.222;2023-05-10T13:36:06;35.88;;;18.60;;
12412;SDS011;13877;18.896;-99.222;2023-05-10T13:38:33;34.35;;;17.70;;
12412;SDS011;13877;18.896;-99.222;2023-05-10T13:41:00;36.20;;;18.05;;
12412;SDS011;13877;18.896;-99.222;2023-05-10T13:43:28;31.65;;;16.98;;
12412;SDS011;13877;18.896;-99.222;2023-05-10T13:45:55;43.85;;;17.35;;
12412;SDS011;13877;18.896;-99.222;2023-05-10T13:48:22;40.30;;;17.40;;
12412;SDS011;13877;18.896;-99.222;2023-05-10T13:50:49;39.08;;;18.20;;
12412;SDS011;13877;18.896;-99.222;2023-05-10T13:53:16;37.10;;;18.88;;
12412;SDS011;13877;18.896;-99.222;2023-05-10T13:55:43;54.95;;;19.83;;
12412;SDS011;13877;18.896;-99.222;2023-05-10T13:58:09;38.75;;;19.23;;
12412;SDS011;13877;18.896;-99.222;2023-05-10T14:00:36;39.80;;;17.88;;
12412;SDS011;13877;18.896;-99.222;2023-05-10T14:03:03;36.47;;;17.10;;
12412;SDS011;13877;18.896;-99.222;2023-05-10T14:05:32;34.92;;;16.10;;
12412;SDS011;13877;18.896;-99.222;2023-05-10T14:07:59;27.70;;;15.00;;
12412;SDS011;13877;18.896;-99.222;2023-05-10T14:10:26;31.52;;;14.35;;
12412;SDS011;13877;18.896;-99.222;2023-05-10T14:12:52;29.27;;;14.25;;
12412;SDS011;13877;18.896;-99.222;2023-05-10T14:15:20;30.02;;;13.63;;
12412;SDS011;13877;18.896;-99.222;2023-05-10T14:17:46;24.88;;;12.32;;
12412;SDS011;13877;18.896;-99.222;2023-05-10T14:20:15;25.88;;;12.57;;
12412;SDS011;13877;18.896;-99.222;2023-05-10T14:22:41;19.42;;;12.05;;
12412;SDS011;13877;18.896;-99.222;2023-05-10T14:25:08;17.02;;;10.73;;
12412;SDS011;13877;18.896;-99.222;2023-05-10T14:27:35;24.60;;;12.15;;
12412;SDS011;13877;18.896;-99.222;2023-05-10T14:30:03;21.02;;;11.45;;
12412;SDS011;13877;18.896;-99.222;2023-05-10T14:32:30;26.55;;;11.13;;
12412;SDS011;13877;18.896;-99.222;2023-05-10T14:34:57;20.23;;;11.10;;
12412;SDS011;13877;18.896;-99.222;2023-05-10T14:37:25;18.88;;;10.80;;
12412;SDS011;13877;18.896;-99.222;2023-05-10T14:39:52;23.50;;;11.32;;
12412;SDS011;13877;18.896;-99.222;2023-05-10T14:42:19;21.63;;;11.50;;
12412;SDS011;13877;18.896;-99.222;2023-05-10T14:44:46;25.20;;;12.43;;
12412;SDS011;13877;18.896;-99.222;2023-05-10T14:47:13;27.25;;;11.98;;
12412;SDS011;13877;18.896;-99.222;2023-05-10T14:49:40;23.95;;;14.45;;